createdAt,value
2023-02-04T00:00:00.947Z,98019.91
2023-02-04T00:02:27.848Z,98007.00
2023-02-04T00:04:54.532Z,98015.50
2023-02-04T00:07:23.485Z,98015.84
2023-02-04T00:09:52.574Z,98009.59
2023-02-04T00:12:19.166Z,98013.09
2023-02-04T00:14:45.841Z,98011.13
2023-02-04T00:17:13.102Z,98011.19
2023-02-04T00:19:43.272Z,98021.03
2023-02-04T00:22:10.175Z,98026.53
2023-02-04T00:24:40.803Z,98025.94
2023-02-04T00:27:07.569Z,98025.72
2023-02-04T00:29:34.666Z,98030.97
2023-02-04T00:32:01.292Z,98025.44
2023-02-04T00:34:27.980Z,98020.88
2023-02-04T00:36:54.509Z,98030.78
2023-02-04T00:39:21.162Z,98028.03
2023-02-04T00:41:47.841Z,98026.00
2023-02-04T00:44:14.598Z,98028.31
2023-02-04T00:46:42.578Z,98037.75
2023-02-04T00:49:10.835Z,98041.63
2023-02-04T00:51:44.669Z,98040.16
2023-02-04T00:54:11.222Z,98049.59
2023-02-04T00:56:37.836Z,98045.19
2023-02-04T00:59:04.376Z,98052.03
2023-02-04T01:01:31.066Z,98066.69
2023-02-04T01:03:57.702Z,98078.28
2023-02-04T01:06:24.316Z,98090.59
2023-02-04T01:08:51.220Z,98089.28
2023-02-04T01:11:18.974Z,98092.44
2023-02-04T01:13:45.558Z,98099.59
2023-02-04T01:16:13.039Z,98106.19
2023-02-04T01:18:39.784Z,98103.53
2023-02-04T01:21:08.808Z,98110.38
2023-02-04T01:23:35.496Z,98132.09
2023-02-04T01:26:02.000Z,98128.75
2023-02-04T01:28:28.622Z,98126.81
2023-02-04T01:30:55.203Z,98136.63
2023-02-04T01:33:22.216Z,98142.13
2023-02-04T01:35:51.059Z,98138.25
2023-02-04T01:38:17.520Z,98145.56
2023-02-04T01:40:44.361Z,98143.75
2023-02-04T01:43:12.411Z,98145.97
2023-02-04T01:45:39.554Z,98154.53
2023-02-04T01:48:07.619Z,98156.28
2023-02-04T01:50:34.973Z,98153.69
2023-02-04T01:53:01.788Z,98160.06
2023-02-04T01:55:31.255Z,98155.44
2023-02-04T01:58:00.061Z,98155.63
2023-02-04T02:00:33.390Z,98164.75
2023-02-04T02:03:00.423Z,98160.72
2023-02-04T02:05:40.798Z,98168.50
2023-02-04T02:08:08.312Z,98181.44
2023-02-04T02:10:36.539Z,98168.91
2023-02-04T02:13:04.551Z,98177.56
2023-02-04T02:15:31.246Z,98177.81
2023-02-04T02:17:57.820Z,98185.09
2023-02-04T02:20:29.653Z,98178.56
2023-02-04T02:23:46.788Z,98188.00
2023-02-04T02:26:15.076Z,98178.66
2023-02-04T02:28:42.166Z,98185.34
2023-02-04T02:31:08.946Z,98187.88
2023-02-04T02:33:35.946Z,98184.63
2023-02-04T02:36:02.800Z,98175.59
2023-02-04T02:38:31.689Z,98179.63
2023-02-04T02:40:59.148Z,98176.91
2023-02-04T02:43:28.308Z,98181.56
2023-02-04T02:46:00.420Z,98202.19
2023-02-04T02:48:27.147Z,98208.81
2023-02-04T02:50:53.708Z,98220.47
2023-02-04T02:53:21.066Z,98223.66
2023-02-04T02:55:48.313Z,98221.50
2023-02-04T02:58:28.756Z,98230.25
2023-02-04T03:00:56.716Z,98226.19
2023-02-04T03:03:48.540Z,98234.53
2023-02-04T03:06:23.171Z,98241.75
2023-02-04T03:08:55.133Z,98233.78
2023-02-04T03:11:22.475Z,98242.78
2023-02-04T03:13:51.078Z,98245.22
2023-02-04T03:16:17.770Z,98248.22
2023-02-04T03:18:44.346Z,98257.56
2023-02-04T03:21:13.252Z,98258.13
2023-02-04T03:23:42.317Z,98269.19
2023-02-04T03:26:08.835Z,98275.13
2023-02-04T03:28:40.741Z,98286.25
2023-02-04T03:31:09.872Z,98273.41
2023-02-04T03:33:36.458Z,98269.66
2023-02-04T03:36:03.214Z,98264.91
2023-02-04T03:38:29.722Z,98266.56
2023-02-04T03:40:56.192Z,98277.03
2023-02-04T03:43:22.772Z,98292.81
2023-02-04T03:45:49.247Z,98290.84
2023-02-04T03:48:15.922Z,98295.19
2023-02-04T03:50:42.817Z,98304.81
2023-02-04T03:53:11.512Z,98318.38
2023-02-04T03:55:38.094Z,98318.72
2023-02-04T03:58:05.363Z,98310.25
2023-02-04T04:00:32.606Z,98314.72
2023-02-04T04:02:59.760Z,98325.31
2023-02-04T04:05:27.915Z,98332.84
2023-02-04T04:07:54.452Z,98332.63
2023-02-04T04:10:20.944Z,98336.94
2023-02-04T04:12:47.437Z,98324.72
2023-02-04T04:15:16.461Z,98318.44
2023-02-04T04:17:42.948Z,98319.44
2023-02-04T04:20:10.061Z,98327.09
2023-02-04T04:22:36.497Z,98335.09
2023-02-04T04:25:03.096Z,98331.44
2023-02-04T04:27:30.250Z,98328.09
2023-02-04T04:29:59.265Z,98338.41
2023-02-04T04:32:25.768Z,98346.19
2023-02-04T04:34:52.247Z,98340.03
2023-02-04T04:37:18.771Z,98327.50
2023-02-04T04:39:45.230Z,98338.59
2023-02-04T04:42:11.717Z,98340.91
2023-02-04T04:44:38.300Z,98353.53
2023-02-04T04:47:07.157Z,98352.47
2023-02-04T04:49:33.697Z,98368.03
2023-02-04T04:52:00.169Z,98366.91
2023-02-04T04:54:26.618Z,98372.09
2023-02-04T04:56:53.173Z,98376.50
2023-02-04T04:59:19.629Z,98379.94
2023-02-04T05:01:46.102Z,98389.41
2023-02-04T05:04:12.551Z,98381.69
2023-02-04T05:06:39.002Z,98378.16
2023-02-04T05:09:05.547Z,98402.16
2023-02-04T05:11:32.101Z,98401.28
2023-02-04T05:13:58.569Z,98406.56
2023-02-04T05:16:25.103Z,98409.91
2023-02-04T05:18:53.922Z,98408.81
2023-02-04T05:21:20.369Z,98408.03
2023-02-04T05:23:46.827Z,98400.41
2023-02-04T05:26:19.535Z,98408.13
2023-02-04T05:28:51.723Z,98411.47
2023-02-04T05:31:18.416Z,98422.00
2023-02-04T05:33:44.979Z,98428.88
2023-02-04T05:36:11.417Z,98433.38
2023-02-04T05:38:40.381Z,98438.50
2023-02-04T05:41:09.147Z,98440.81
2023-02-04T05:43:35.632Z,98444.31
2023-02-04T05:46:02.988Z,98442.13
2023-02-04T05:48:32.449Z,98460.78
2023-02-04T05:50:58.885Z,98456.81
2023-02-04T05:53:26.205Z,98459.22
2023-02-04T05:55:53.029Z,98469.31
2023-02-04T05:58:22.043Z,98470.09
2023-02-04T06:00:48.565Z,98466.59
2023-02-04T06:03:15.063Z,98475.97
2023-02-04T06:05:41.585Z,98485.41
2023-02-04T06:08:08.097Z,98488.28
2023-02-04T06:10:34.639Z,98488.88
2023-02-04T06:13:01.101Z,98488.88
2023-02-04T06:15:27.662Z,98496.94
2023-02-04T06:17:54.177Z,98506.59
2023-02-04T06:20:20.708Z,98511.16
2023-02-04T06:22:47.648Z,98515.81
2023-02-04T06:25:14.275Z,98512.34
2023-02-04T06:27:40.821Z,98507.97
2023-02-04T06:30:07.968Z,98515.09
2023-02-04T06:32:34.430Z,98520.78
2023-02-04T06:35:03.182Z,98531.31
2023-02-04T06:37:29.774Z,98518.53
2023-02-04T06:39:57.560Z,98517.09
2023-02-04T06:42:25.388Z,98524.47
2023-02-04T06:44:53.050Z,98539.25
2023-02-04T06:47:20.368Z,98541.38
2023-02-04T06:49:46.873Z,98541.06
2023-02-04T06:52:13.329Z,98535.84
2023-02-04T06:54:39.801Z,98549.63
2023-02-04T06:57:08.931Z,98552.34
2023-02-04T06:59:39.133Z,98541.06
2023-02-04T07:02:07.742Z,98548.78
2023-02-04T07:04:35.350Z,98554.78
2023-02-04T07:07:01.879Z,98568.59
2023-02-04T07:09:30.961Z,98582.44
2023-02-04T07:11:59.733Z,98582.44
2023-02-04T07:14:26.218Z,98599.28
2023-02-04T07:16:52.760Z,98627.09
2023-02-04T07:19:21.076Z,98632.84
2023-02-04T07:21:47.815Z,98640.03
2023-02-04T07:24:14.308Z,98655.91
2023-02-04T07:26:40.915Z,98657.81
2023-02-04T07:29:12.200Z,98665.97
2023-02-04T07:31:45.415Z,98672.34
2023-02-04T07:34:16.264Z,98677.34
2023-02-04T07:36:42.790Z,98672.47
2023-02-04T07:39:10.091Z,98674.75
2023-02-04T07:41:37.019Z,98681.47
2023-02-04T07:44:04.494Z,98689.44
2023-02-04T07:46:33.823Z,98689.38
2023-02-04T07:49:00.349Z,98692.03
2023-02-04T07:51:27.932Z,98702.09
2023-02-04T07:53:55.952Z,98702.38
2023-02-04T07:56:22.510Z,98711.50
2023-02-04T07:58:49.169Z,98713.44
2023-02-04T08:01:15.666Z,98722.78
2023-02-04T08:03:42.757Z,98723.56
2023-02-04T08:06:09.678Z,98722.69
2023-02-04T08:08:36.188Z,98720.22
2023-02-04T08:11:02.786Z,98713.56
2023-02-04T08:13:29.369Z,98719.13
2023-02-04T08:15:58.181Z,98728.75
2023-02-04T08:18:25.172Z,98736.56
2023-02-04T08:20:52.379Z,98743.53
2023-02-04T08:23:19.055Z,98752.72
2023-02-04T08:25:45.612Z,98756.00
2023-02-04T08:28:12.338Z,98749.97
2023-02-04T08:30:41.171Z,98759.19
2023-02-04T08:33:07.681Z,98756.28
2023-02-04T08:35:34.213Z,98759.41
2023-02-04T08:38:03.191Z,98765.88
2023-02-04T08:40:29.878Z,98771.06
2023-02-04T08:42:57.054Z,98778.69
2023-02-04T08:45:23.541Z,98777.31
2023-02-04T08:47:50.099Z,98782.81
2023-02-04T08:50:18.188Z,98788.13
2023-02-04T08:52:46.810Z,98783.97
2023-02-04T08:55:13.335Z,98791.56
2023-02-04T08:57:39.923Z,98786.22
2023-02-04T09:00:06.797Z,98791.28
2023-02-04T09:02:33.347Z,98785.22
2023-02-04T09:04:59.817Z,98801.75
2023-02-04T09:07:26.314Z,98811.25
2023-02-04T09:09:52.814Z,98818.25
2023-02-04T09:12:19.283Z,98821.53
2023-02-04T09:14:45.815Z,98826.19
2023-02-04T09:17:12.394Z,98829.31
2023-02-04T09:19:38.934Z,98824.53
2023-02-04T09:22:05.383Z,98835.34
2023-02-04T09:24:31.959Z,98845.41
2023-02-04T09:26:58.447Z,98849.25
2023-02-04T09:29:24.955Z,98851.31
2023-02-04T09:31:51.537Z,98857.44
2023-02-04T09:34:18.056Z,98868.78
2023-02-04T09:36:46.679Z,98871.56
2023-02-04T09:39:13.426Z,98871.13
2023-02-04T09:41:41.150Z,98867.59
2023-02-04T09:44:16.172Z,98875.19
2023-02-04T09:46:48.753Z,98873.69
2023-02-04T09:49:15.478Z,98879.41
2023-02-04T09:51:44.001Z,98879.53
2023-02-04T09:54:24.017Z,98890.78
2023-02-04T09:56:51.964Z,98886.66
2023-02-04T09:59:23.704Z,98892.09
2023-02-04T10:01:57.415Z,98895.66
2023-02-04T10:04:24.155Z,98890.03
2023-02-04T10:06:50.845Z,98890.09
2023-02-04T10:09:18.121Z,98896.78
2023-02-04T10:11:48.337Z,98902.81
2023-02-04T10:14:24.513Z,98896.25
2023-02-04T10:16:58.521Z,98898.28
2023-02-04T10:19:28.221Z,98903.31
2023-02-04T10:21:55.039Z,98910.81
2023-02-04T10:24:26.521Z,98913.19
2023-02-04T10:26:54.111Z,98919.75
2023-02-04T10:29:25.813Z,98921.03
2023-02-04T10:31:53.159Z,98928.34
2023-02-04T10:34:21.263Z,98924.44
2023-02-04T10:36:53.521Z,98932.38
2023-02-04T10:39:30.258Z,98932.38
2023-02-04T10:41:59.495Z,98929.91
2023-02-04T10:44:29.189Z,98929.03
2023-02-04T10:47:08.549Z,98931.59
2023-02-04T10:49:35.070Z,98933.63
2023-02-04T10:52:07.003Z,98927.56
2023-02-04T10:54:38.389Z,98933.97
2023-02-04T10:57:29.121Z,98930.81
2023-02-04T11:00:01.469Z,98932.63
2023-02-04T11:02:42.184Z,98928.47
2023-02-04T11:05:16.892Z,98929.06
2023-02-04T11:07:45.613Z,98927.72
2023-02-04T11:10:18.471Z,98931.59
2023-02-04T11:12:58.790Z,98934.88
2023-02-04T11:15:50.367Z,98931.78
2023-02-04T11:18:22.594Z,98924.75
2023-02-04T11:20:51.408Z,98923.72
2023-02-04T11:23:29.840Z,98921.78
2023-02-04T11:26:08.596Z,98927.34
2023-02-04T11:28:44.369Z,98928.91
2023-02-04T11:31:23.012Z,98923.72
2023-02-04T11:34:02.333Z,98921.13
2023-02-04T11:36:30.544Z,98912.50
2023-02-04T11:38:57.180Z,98928.09
2023-02-04T11:41:28.264Z,98925.03
2023-02-04T11:43:56.122Z,98925.34
2023-02-04T11:46:23.941Z,98923.13
2023-02-04T11:48:55.000Z,98924.75
2023-02-04T11:51:34.534Z,98926.38
2023-02-04T11:54:01.111Z,98925.97
2023-02-04T11:56:30.143Z,98929.84
2023-02-04T11:59:00.399Z,98930.88
2023-02-04T12:01:32.717Z,98933.13
2023-02-04T12:04:07.192Z,98920.81
2023-02-04T12:06:39.081Z,98922.28
2023-02-04T12:09:17.701Z,98914.81
2023-02-04T12:12:03.860Z,98914.97
2023-02-04T12:14:36.852Z,98926.53
2023-02-04T12:17:17.084Z,98917.34
2023-02-04T12:19:43.624Z,98917.75
2023-02-04T12:22:10.128Z,98910.50
2023-02-04T12:24:38.955Z,98918.16
2023-02-04T12:27:05.452Z,98916.53
2023-02-04T12:29:31.978Z,98908.31
2023-02-04T12:31:58.562Z,98910.00
2023-02-04T12:34:27.629Z,98904.38
2023-02-04T12:36:54.153Z,98906.88
2023-02-04T12:39:20.656Z,98909.41
2023-02-04T12:41:47.148Z,98914.91
2023-02-04T12:44:17.414Z,98913.69
2023-02-04T12:46:46.160Z,98914.72
2023-02-04T12:49:12.703Z,98917.53
2023-02-04T12:51:39.170Z,98916.03
2023-02-04T12:54:05.716Z,98919.84
2023-02-04T12:56:34.566Z,98917.50
2023-02-04T12:59:01.031Z,98913.56
2023-02-04T13:01:27.622Z,98913.22
2023-02-04T13:03:56.404Z,98923.56
2023-02-04T13:06:25.296Z,98920.31
2023-02-04T13:08:54.367Z,98914.19
2023-02-04T13:11:22.928Z,98927.88
2023-02-04T13:13:49.418Z,98931.59
2023-02-04T13:16:18.168Z,98937.13
2023-02-04T13:18:44.795Z,98938.09
2023-02-04T13:21:11.315Z,98935.00
2023-02-04T13:23:37.823Z,98929.72
2023-02-04T13:26:04.484Z,98937.56
2023-02-04T13:28:31.052Z,98941.97
2023-02-04T13:30:57.546Z,98939.84
2023-02-04T13:33:24.103Z,98940.63
2023-02-04T13:35:50.604Z,98949.00
2023-02-04T13:38:19.500Z,98946.50
2023-02-04T13:40:45.971Z,98957.19
2023-02-04T13:43:12.472Z,98958.13
2023-02-04T13:45:40.076Z,98961.78
2023-02-04T13:48:06.617Z,98963.13
2023-02-04T13:50:33.266Z,98962.25
2023-02-04T13:53:00.266Z,98960.13
2023-02-04T13:55:26.856Z,98959.09
2023-02-04T13:57:53.332Z,98966.78
2023-02-04T14:00:20.036Z,98955.88
2023-02-04T14:02:48.434Z,98966.91
2023-02-04T14:05:15.687Z,98964.47
2023-02-04T14:07:42.238Z,98970.31
2023-02-04T14:10:09.085Z,98971.91
2023-02-04T14:12:35.601Z,98982.25
2023-02-04T14:15:02.103Z,98985.03
2023-02-04T14:17:28.552Z,98980.59
2023-02-04T14:19:55.001Z,98985.56
2023-02-04T14:22:21.491Z,98992.53
2023-02-04T14:24:48.473Z,98989.22
2023-02-04T14:27:14.976Z,98997.50
2023-02-04T14:29:41.477Z,98995.53
2023-02-04T14:32:10.086Z,98999.72
2023-02-04T14:34:36.565Z,98997.22
2023-02-04T14:37:03.088Z,98999.63
2023-02-04T14:39:32.002Z,98999.63
2023-02-04T14:41:58.512Z,99001.00
2023-02-04T14:44:25.013Z,99002.22
2023-02-04T14:46:51.483Z,98999.22
2023-02-04T14:49:18.038Z,98996.44
2023-02-04T14:51:44.573Z,99009.00
2023-02-04T14:54:14.700Z,99010.44
2023-02-04T14:56:41.192Z,99016.97
2023-02-04T14:59:07.902Z,99019.56
2023-02-04T15:01:34.410Z,99028.31
2023-02-04T15:04:01.101Z,99020.97
2023-02-04T15:06:27.588Z,99027.03
2023-02-04T15:08:54.119Z,99037.03
2023-02-04T15:11:20.660Z,99035.41
2023-02-04T15:13:47.166Z,99033.53
2023-02-04T15:16:14.824Z,99048.09
2023-02-04T15:18:41.782Z,99042.28
2023-02-04T15:21:08.673Z,99047.06
2023-02-04T15:23:35.239Z,99043.47
2023-02-04T15:26:01.855Z,99055.19
2023-02-04T15:28:29.834Z,99056.31
2023-02-04T15:30:56.683Z,99048.47
2023-02-04T15:33:23.311Z,99060.41
2023-02-04T15:35:51.879Z,99062.03
2023-02-04T15:38:18.431Z,99060.03
2023-02-04T15:40:44.931Z,99061.38
2023-02-04T15:43:11.479Z,99065.72
2023-02-04T15:45:43.789Z,99066.78
2023-02-04T15:48:10.611Z,99073.03
2023-02-04T15:50:38.522Z,99072.31
2023-02-04T15:53:05.104Z,99081.16
2023-02-04T15:55:31.550Z,99086.75
2023-02-04T15:57:58.143Z,99082.91
2023-02-04T16:00:25.235Z,99086.53
2023-02-04T16:02:51.923Z,99099.78
2023-02-04T16:05:18.450Z,99099.72
2023-02-04T16:07:44.975Z,99106.78
2023-02-04T16:10:11.517Z,99103.59
2023-02-04T16:12:37.992Z,99100.06
2023-02-04T16:15:04.823Z,99096.97
2023-02-04T16:17:31.956Z,99108.50
2023-02-04T16:19:58.510Z,99106.69
2023-02-04T16:22:27.372Z,99110.28
2023-02-04T16:24:55.050Z,99115.25
2023-02-04T16:27:21.565Z,99111.25
2023-02-04T16:29:50.427Z,99116.94
2023-02-04T16:32:17.218Z,99117.56
2023-02-04T16:34:43.694Z,99116.00
2023-02-04T16:37:10.444Z,99118.63
2023-02-04T16:39:38.956Z,99127.94
2023-02-04T16:42:10.156Z,99130.09
2023-02-04T16:44:37.346Z,99123.94
2023-02-04T16:47:05.033Z,99134.53
2023-02-04T16:49:31.714Z,99137.25
2023-02-04T16:51:58.375Z,99137.34
2023-02-04T16:54:27.093Z,99143.44
2023-02-04T16:56:55.378Z,99156.88
2023-02-04T16:59:22.086Z,99145.69
2023-02-04T17:01:51.425Z,99143.81
2023-02-04T17:04:17.931Z,99152.31
2023-02-04T17:06:44.445Z,99153.97
2023-02-04T17:09:10.977Z,99156.19
2023-02-04T17:11:37.573Z,99159.47
2023-02-04T17:14:09.867Z,99162.78
2023-02-04T17:16:37.292Z,99165.69
2023-02-04T17:19:05.451Z,99169.53
2023-02-04T17:21:32.013Z,99175.66
2023-02-04T17:24:04.257Z,99176.50
2023-02-04T17:26:37.409Z,99174.00
2023-02-04T17:29:08.806Z,99174.03
2023-02-04T17:31:35.594Z,99175.69
2023-02-04T17:34:04.970Z,99186.44
2023-02-04T17:36:32.468Z,99184.66
2023-02-04T17:38:59.457Z,99181.03
2023-02-04T17:41:26.017Z,99183.75
2023-02-04T17:43:52.690Z,99183.75
2023-02-04T17:46:19.340Z,99188.19
2023-02-04T17:48:48.578Z,99190.75
2023-02-04T17:51:15.189Z,99189.03
2023-02-04T17:53:42.114Z,99193.53
2023-02-04T17:56:13.337Z,99195.97
2023-02-04T17:58:40.963Z,99195.41
2023-02-04T18:01:15.939Z,99195.03
2023-02-04T18:03:43.887Z,99196.97
2023-02-04T18:06:27.064Z,99188.69
2023-02-04T18:08:56.480Z,99191.19
2023-02-04T18:11:27.348Z,99193.09
2023-02-04T18:14:00.366Z,99192.63
2023-02-04T18:16:30.827Z,99196.16
2023-02-04T18:19:20.136Z,99200.47
2023-02-04T18:21:47.629Z,99196.06
2023-02-04T18:24:22.606Z,99199.63
2023-02-04T18:26:51.663Z,99208.97
2023-02-04T18:29:27.226Z,99202.38
2023-02-04T18:32:00.610Z,99203.91
2023-02-04T18:34:40.319Z,99198.53
2023-02-04T18:37:37.570Z,99198.97
2023-02-04T18:40:10.271Z,99194.72
2023-02-04T18:42:39.051Z,99204.22
2023-02-04T18:45:25.514Z,99202.00
2023-02-04T18:47:58.436Z,99207.13
2023-02-04T18:50:28.143Z,99202.13
2023-02-04T18:52:54.676Z,99202.09
2023-02-04T18:55:32.308Z,99203.25
2023-02-04T18:58:29.220Z,99203.31
2023-02-04T19:01:12.729Z,99208.47
2023-02-04T19:03:57.491Z,99201.50
2023-02-04T19:06:40.573Z,99204.47
2023-02-04T19:09:09.866Z,99195.19
2023-02-04T19:11:48.951Z,99201.13
2023-02-04T19:14:31.106Z,99206.75
2023-02-04T19:17:22.425Z,99206.94
2023-02-04T19:19:59.042Z,99204.41
2023-02-04T19:22:47.851Z,99206.94
2023-02-04T19:25:32.613Z,99202.47
2023-02-04T19:28:16.842Z,99204.56
2023-02-04T19:30:53.980Z,99204.63
2023-02-04T19:33:26.868Z,99209.56
2023-02-04T19:35:53.453Z,99203.22
2023-02-04T19:38:43.668Z,99204.88
2023-02-04T19:41:25.928Z,99204.00
2023-02-04T19:43:57.043Z,99201.63
2023-02-04T19:46:25.039Z,99204.94
2023-02-04T19:48:51.925Z,99201.41
2023-02-04T19:51:21.246Z,99193.97
2023-02-04T19:53:52.151Z,99199.00
2023-02-04T19:56:31.956Z,99200.63
2023-02-04T19:59:10.101Z,99196.75
2023-02-04T20:01:39.342Z,99197.63
2023-02-04T20:04:19.895Z,99199.50
2023-02-04T20:06:47.784Z,99196.84
2023-02-04T20:09:29.101Z,99198.56
2023-02-04T20:12:06.396Z,99200.41
2023-02-04T20:14:46.153Z,99196.94
2023-02-04T20:17:23.533Z,99195.25
2023-02-04T20:19:50.819Z,99198.75
2023-02-04T20:22:17.460Z,99202.97
2023-02-04T20:24:48.345Z,99203.06
2023-02-04T20:27:41.911Z,99200.66
2023-02-04T20:30:09.329Z,99196.44
2023-02-04T20:32:40.199Z,99204.09
2023-02-04T20:35:09.645Z,99216.81
2023-02-04T20:37:42.063Z,99219.50
2023-02-04T20:40:20.702Z,99216.97
2023-02-04T20:42:54.838Z,99228.97
2023-02-04T20:45:48.912Z,99234.13
2023-02-04T20:48:15.290Z,99233.19
2023-02-04T20:50:43.435Z,99241.81
2023-02-04T20:53:41.100Z,99233.16
2023-02-04T20:56:25.291Z,99244.38
2023-02-04T20:58:57.184Z,99245.06
2023-02-04T21:01:34.214Z,99257.28
2023-02-04T21:04:18.410Z,99250.47
2023-02-04T21:06:45.474Z,99258.16
2023-02-04T21:09:23.168Z,99259.88
2023-02-04T21:11:51.071Z,99250.41
2023-02-04T21:14:17.858Z,99254.59
2023-02-04T21:16:44.514Z,99257.06
2023-02-04T21:19:11.119Z,99251.09
2023-02-04T21:21:37.599Z,99255.28
2023-02-04T21:24:04.519Z,99258.03
2023-02-04T21:26:31.079Z,99257.25
2023-02-04T21:28:57.629Z,99254.56
2023-02-04T21:31:24.262Z,99258.06
2023-02-04T21:33:50.885Z,99257.22
2023-02-04T21:36:17.399Z,99258.03
2023-02-04T21:38:43.923Z,99264.88
2023-02-04T21:41:10.486Z,99265.75
2023-02-04T21:43:37.006Z,99265.66
2023-02-04T21:46:03.555Z,99268.31
2023-02-04T21:48:30.045Z,99262.28
2023-02-04T21:50:57.773Z,99263.91
2023-02-04T21:53:24.287Z,99263.13
2023-02-04T21:55:53.181Z,99258.81
2023-02-04T21:58:19.669Z,99264.63
2023-02-04T22:00:46.253Z,99272.34
2023-02-04T22:03:15.835Z,99262.97
2023-02-04T22:05:43.156Z,99265.53
2023-02-04T22:08:10.224Z,99262.13
2023-02-04T22:10:36.912Z,99266.47
2023-02-04T22:13:03.847Z,99269.84
2023-02-04T22:15:30.972Z,99265.59
2023-02-04T22:17:57.645Z,99268.16
2023-02-04T22:20:25.550Z,99266.50
2023-02-04T22:22:52.453Z,99266.47
2023-02-04T22:25:20.830Z,99259.56
2023-02-04T22:27:47.584Z,99264.63
2023-02-04T22:30:16.165Z,99266.44
2023-02-04T22:32:43.106Z,99266.47
2023-02-04T22:35:10.814Z,99277.53
2023-02-04T22:37:38.461Z,99280.09
2023-02-04T22:40:06.314Z,99270.69
2023-02-04T22:42:32.981Z,99279.97
2023-02-04T22:44:59.462Z,99280.09
2023-02-04T22:47:25.931Z,99279.31
2023-02-04T22:49:52.593Z,99289.66
2023-02-04T22:52:19.210Z,99292.25
2023-02-04T22:54:45.850Z,99290.50
2023-02-04T22:57:12.449Z,99281.09
2023-02-04T22:59:39.252Z,99281.84
2023-02-04T23:02:06.239Z,99291.31
2023-02-04T23:04:35.103Z,99286.13
2023-02-04T23:07:04.779Z,99287.94
2023-02-04T23:09:32.690Z,99286.91
2023-02-04T23:12:12.746Z,99287.75
2023-02-04T23:14:41.389Z,99291.41
2023-02-04T23:17:10.793Z,99289.72
2023-02-04T23:19:37.852Z,99287.03
2023-02-04T23:22:05.340Z,99286.19
2023-02-04T23:24:37.288Z,99284.56
2023-02-04T23:27:04.404Z,99275.13
2023-02-04T23:29:37.652Z,99282.03
2023-02-04T23:32:04.385Z,99275.97
2023-02-04T23:34:31.742Z,99272.56
2023-02-04T23:36:58.530Z,99272.47
2023-02-04T23:39:25.853Z,99273.34
2023-02-04T23:41:52.544Z,99279.34
2023-02-04T23:44:19.254Z,99286.28
2023-02-04T23:46:46.182Z,99288.00
2023-02-04T23:49:12.930Z,99294.03
2023-02-04T23:51:39.940Z,99290.59
2023-02-04T23:54:07.434Z,99291.41
2023-02-04T23:56:34.325Z,99288.97
2023-02-04T23:59:01.339Z,99278.41
